Historyczne dane pomiarowe

Dodano dane terminowe – wersja testowa.

Dane z okresu 1951-2019

Wersja bazy: 1.34 [2019-03-16, lista zmian], aktualizacja planowana na 2019-04-15

Dane meteo z obszaru Polski uzyskane na podstawie danych udostępnionych przez Instytut Meteorologii i Gospodarki Wodnej – Państwowy Instytut Badawczy.

 

Wybierz Datę:    

       

TemperaturaWilgotnośćWiatrCiśnienieOpadyŚniegCzas trwania zjawisk
 Stacja t tx tn tng RH VA  wxwx mslp ppp RRR   cm mm wxwxwxwxwxwxwx
1987-08-14 13.9 16.6 11.2- 85.0- 8.0 5.0---- 11.6------------
1987-08-13 14.9 17.0 10.9- 85.8- 1.7 4.3---- 0.0------------
1987-08-12 13.6 15.6 12.9- 82.8- 3.7 6.3---- 0.2------------
1987-08-11 13.1 14.6 12.1- 81.8- 6.3 5.0---- 0.0------------
1987-08-10 13.4 14.6 12.7- 93.0- 8.0 4.0---- 0.0------------
1987-08-09 13.9 18.5 11.9- 91.0- 6.3 2.3---- 5.0------------
1987-08-08 13.2 20.3 9.5- 78.3- 4.7 5.3---- 0.0------------
1987-08-07 12.4 15.2 10.3- 84.0- 3.0 5.7---- 0.2------------
1987-08-06 11.8 14.5 9.5- 92.0- 6.0 4.3---- 16.6------------
1987-08-05 12.1 15.0 10.3- 92.8- 6.7 7.0---- 4.3------------
1987-08-04 11.9 15.0 10.4- 88.3- 5.7 4.0---- 10.7------------
1987-08-03 12.7 16.2 11.2- 86.8- 6.7 3.7---- 1.0------------
1987-08-02 12.6 15.8 10.4- 82.8- 4.0 8.7---- 12.7------------
1987-08-01 15.1 17.7 12.6- 85.3- 7.3 7.7---- 3.0------------
1987-07-31 14.4 16.5 13.1- 87.8- 5.0 6.0---- 1.0------------
1987-07-30 14.9 20.0 11.6- 85.0- 4.3 3.3---- 3.0------------
1987-07-29 12.8 14.7 12.2- 88.5- 6.7 3.3---- 0.4------------
1987-07-28 13.5 16.8 10.9- 87.0- 4.7 8.0---- 0.4------------
1987-07-27 11.7 13.9 10.2- 88.5- 7.0 5.0---- 2.8------------
1987-07-26 12.8 16.0 9.9- 76.0- 3.3 6.7---- 2.2------------
1987-07-25 13.9 17.1 12.4- 86.3- 4.3 5.7---- 0.9------------
1987-07-24 16.0 19.7 13.5- 94.3- 7.0 4.3---- 1.3------------
1987-07-23 14.1 15.6 13.5- 98.5- 8.0 2.3---- 14.1------------
1987-07-22 13.8 17.0 11.7- 98.5- 8.0 0.7---- 0.0------------
1987-07-21 13.1 15.3 11.9- 99.3- 6.0 1.7---- 0.0------------
1987-07-20 13.5 15.0 11.7- 97.8- 8.0 2.7---- 20.2------------
1987-07-19 12.9 15.4 11.1- 90.0- 7.3 6.7---- 16.1------------
1987-07-18 13.7 16.4 12.3- 87.5- 4.0 6.3---- 0.0------------
1987-07-17 15.1 17.3 13.4- 87.3- 0.3 7.7---- 0.7------------
1987-07-16 14.9 17.2 13.5- 89.0- 1.0 1.7---- 0.0------------
1987-07-15 14.2 17.6 10.2- 87.0- 0.0 2.0---- 0.0------------
1987-07-14 14.2 16.4 12.8- 83.8- 1.7 3.3---- 0.0------------
1987-07-13 13.6 16.3 10.5- 85.5- 3.3 9.0---- 1.8------------
1987-07-12 15.4 20.0 13.5- 94.5- 8.0 4.3---- 33.4------------
1987-07-11 13.2 16.1 10.5- 86.5- 6.7 3.3---- 2.4------------
1987-07-10 13.4 16.2 10.5- 77.5- 5.3 11.0---- 1.0------------
1987-07-09 15.3 18.3 14.0- 75.8- 2.7 6.7---- 0.4------------
1987-07-08 20.3 24.1 17.2- 67.3- 6.0 5.0---- 0.0------------
1987-07-07 20.0 25.5 14.5- 69.8- 0.0 1.0---- 0.0------------
1987-07-06 15.5 19.1 10.0- 65.0- 0.0 2.7---- 0.0------------
1987-07-05 13.4 15.4 10.8- 74.3- 0.0 1.0---- 0.0------------
1987-07-04 13.9 17.3 10.2- 78.8- 1.0 1.7---- 0.0------------
1987-07-03 13.6 16.1 10.0- 77.5- 0.0 1.7---- 0.0------------
1987-07-02 13.9 15.9 12.0- 83.5- 2.0 4.3---- 0.0------------
1987-07-01 17.0 25.1 14.5- 95.8- 6.3 2.0---- 4.7------------
1987-06-30 20.5 26.3 15.6- 87.0- 5.3 1.7---- 0.6------------
1987-06-29 16.0 21.1 9.8- 84.3- 8.0 7.0---- 0.0------------
1987-06-28 11.8 14.4 9.5- 83.5- 6.7 5.0---- 0.0------------
1987-06-27 13.4 17.6 11.6- 79.5- 2.7 4.7---- 13.9------------
1987-06-26 14.5 20.1 8.4- 71.8- 6.7 2.7---- 0.2------------
1987-06-25 11.1 14.0 7.3- 77.0- 3.7 5.3---- 0.0------------
1987-06-24 12.0 15.0 11.2- 91.8- 7.3 3.0---- 0.7------------
1987-06-23 11.9 15.0 10.0- 90.8- 7.3 0.7---- 12.7------------
1987-06-22 11.6 15.8 10.5- 92.5- 7.0 3.7---- 0.1------------
1987-06-21 15.3 19.3 12.3- 76.5- 5.0 1.3---- 0.0------------
1987-06-20 13.1 17.6 10.0- 81.8- 4.0 3.7---- 0.0------------
1987-06-19 10.1 13.2 8.7- 92.3- 7.7 2.0---- 1.6------------
1987-06-18 10.9 15.0 7.9- 78.8- 4.7 4.7---- 7.6------------
1987-06-17 11.8 14.8 10.2- 71.3- 6.0 7.0---- 0.0------------
1987-06-16 10.8 14.6 9.9- 90.3- 7.7 11.7---- 1.0------------
433.2 ms

 

Źródłem pochodzenia danych jest Instytut Meteorologii i Gospodarki Wodnej – Państwowy Instytut Badawczy. Dane Instytutu Meteorologii i Gospodarki Wodnej – Państwowego Instytutu Badawczego zostały przetworzone.

Dane źródłowe można odnaleźć na stronie https://dane.imgw.pl